sensor_id;sensor_type;location;lat;lon;timestamp;temperature;humidity
67502;SHT30;54349;52.528;19.760;2023-04-08T00:00:56;23.90;43.22
67502;SHT30;54349;52.528;19.760;2023-04-08T00:03:27;23.91;43.23
67502;SHT30;54349;52.528;19.760;2023-04-08T00:05:55;23.92;43.30
67502;SHT30;54349;52.528;19.760;2023-04-08T00:08:24;23.93;43.26
67502;SHT30;54349;52.528;19.760;2023-04-08T00:10:52;23.93;43.23
67502;SHT30;54349;52.528;19.760;2023-04-08T00:13:21;23.94;43.20
67502;SHT30;54349;52.528;19.760;2023-04-08T00:15:49;23.95;43.21
67502;SHT30;54349;52.528;19.760;2023-04-08T00:18:21;23.96;43.25
67502;SHT30;54349;52.528;19.760;2023-04-08T00:20:50;23.96;43.22
67502;SHT30;54349;52.528;19.760;2023-04-08T00:23:18;23.96;43.20
67502;SHT30;54349;52.528;19.760;2023-04-08T00:25:48;23.97;43.19
67502;SHT30;54349;52.528;19.760;2023-04-08T00:28:16;23.97;43.16
67502;SHT30;54349;52.528;19.760;2023-04-08T00:30:47;23.98;43.14
67502;SHT30;54349;52.528;19.760;2023-04-08T00:33:15;23.98;43.10
67502;SHT30;54349;52.528;19.760;2023-04-08T00:35:45;23.97;43.11
67502;SHT30;54349;52.528;19.760;2023-04-08T00:38:14;23.99;43.11
67502;SHT30;54349;52.528;19.760;2023-04-08T00:40:43;23.99;43.13
67502;SHT30;54349;52.528;19.760;2023-04-08T00:43:11;23.99;43.17
67502;SHT30;54349;52.528;19.760;2023-04-08T00:45:46;24.00;43.06
67502;SHT30;54349;52.528;19.760;2023-04-08T00:48:17;23.98;42.90
67502;SHT30;54349;52.528;19.760;2023-04-08T00:50:45;23.96;42.72
67502;SHT30;54349;52.528;19.760;2023-04-08T00:53:14;23.93;42.63
67502;SHT30;54349;52.528;19.760;2023-04-08T00:55:46;23.90;42.57
67502;SHT30;54349;52.528;19.760;2023-04-08T00:58:15;23.87;42.50
67502;SHT30;54349;52.528;19.760;2023-04-08T01:00:49;23.84;42.40
67502;SHT30;54349;52.528;19.760;2023-04-08T01:09:07;23.74;42.08
67502;SHT30;54349;52.528;19.760;2023-04-08T01:11:37;23.71;42.05
67502;SHT30;54349;52.528;19.760;2023-04-08T01:14:14;23.68;41.95
67502;SHT30;54349;52.528;19.760;2023-04-08T01:16:48;23.66;41.91
67502;SHT30;54349;52.528;19.760;2023-04-08T01:19:25;23.62;41.90
67502;SHT30;54349;52.528;19.760;2023-04-08T01:24:58;23.55;41.79
67502;SHT30;54349;52.528;19.760;2023-04-08T01:27:35;23.53;41.76
67502;SHT30;54349;52.528;19.760;2023-04-08T01:30:05;23.50;41.74
67502;SHT30;54349;52.528;19.760;2023-04-08T01:32:37;23.47;41.60
67502;SHT30;54349;52.528;19.760;2023-04-08T01:35:11;23.44;41.59
67502;SHT30;54349;52.528;19.760;2023-04-08T01:37:42;23.42;41.51
67502;SHT30;54349;52.528;19.760;2023-04-08T01:40:16;23.39;41.52
67502;SHT30;54349;52.528;19.760;2023-04-08T01:42:47;23.37;41.47
67502;SHT30;54349;52.528;19.760;2023-04-08T01:45:18;23.34;41.40
67502;SHT30;54349;52.528;19.760;2023-04-08T01:47:49;23.31;41.38
67502;SHT30;54349;52.528;19.760;2023-04-08T01:50:20;23.28;41.40
67502;SHT30;54349;52.528;19.760;2023-04-08T01:52:55;23.25;41.39
67502;SHT30;54349;52.528;19.760;2023-04-08T01:55:28;23.22;41.34
67502;SHT30;54349;52.528;19.760;2023-04-08T01:58:05;23.20;41.34
67502;SHT30;54349;52.528;19.760;2023-04-08T02:00:39;23.17;41.30
67502;SHT30;54349;52.528;19.760;2023-04-08T02:03:16;23.14;41.29
67502;SHT30;54349;52.528;19.760;2023-04-08T02:05:51;23.12;41.28
67502;SHT30;54349;52.528;19.760;2023-04-08T02:08:20;23.10;41.31
67502;SHT30;54349;52.528;19.760;2023-04-08T02:10:48;23.08;41.30
67502;SHT30;54349;52.528;19.760;2023-04-08T02:13:17;23.05;41.23
67502;SHT30;54349;52.528;19.760;2023-04-08T02:15:51;23.03;41.23
67502;SHT30;54349;52.528;19.760;2023-04-08T02:18:29;23.00;41.23
67502;SHT30;54349;52.528;19.760;2023-04-08T02:23:44;22.94;41.20
67502;SHT30;54349;52.528;19.760;2023-04-08T02:26:18;22.93;41.20
67502;SHT30;54349;52.528;19.760;2023-04-08T02:28:51;22.91;41.20
67502;SHT30;54349;52.528;19.760;2023-04-08T02:31:23;22.89;41.18
67502;SHT30;54349;52.528;19.760;2023-04-08T02:33:53;22.86;41.17
67502;SHT30;54349;52.528;19.760;2023-04-08T02:36:25;22.84;41.16
67502;SHT30;54349;52.528;19.760;2023-04-08T02:38:54;22.82;41.12
67502;SHT30;54349;52.528;19.760;2023-04-08T02:41:26;22.79;41.15
67502;SHT30;54349;52.528;19.760;2023-04-08T02:43:58;22.77;41.11
67502;SHT30;54349;52.528;19.760;2023-04-08T02:46:27;22.76;41.11
67502;SHT30;54349;52.528;19.760;2023-04-08T02:48:56;22.73;41.10
67502;SHT30;54349;52.528;19.760;2023-04-08T02:51:24;22.71;41.10
67502;SHT30;54349;52.528;19.760;2023-04-08T02:53:53;22.70;41.10
67502;SHT30;54349;52.528;19.760;2023-04-08T02:56:23;22.67;41.09
67502;SHT30;54349;52.528;19.760;2023-04-08T02:58:52;22.65;41.00
67502;SHT30;54349;52.528;19.760;2023-04-08T03:01:22;22.62;40.76
67502;SHT30;54349;52.528;19.760;2023-04-08T03:03:50;22.59;40.61
67502;SHT30;54349;52.528;19.760;2023-04-08T03:06:19;22.55;40.54
67502;SHT30;54349;52.528;19.760;2023-04-08T03:08:48;22.51;40.50
67502;SHT30;54349;52.528;19.760;2023-04-08T03:11:17;22.47;40.38
67502;SHT30;54349;52.528;19.760;2023-04-08T03:13:46;22.44;40.32
67502;SHT30;54349;52.528;19.760;2023-04-08T03:16:15;22.40;40.22
67502;SHT30;54349;52.528;19.760;2023-04-08T03:18:43;22.37;40.18
67502;SHT30;54349;52.528;19.760;2023-04-08T03:21:13;22.33;40.13
67502;SHT30;54349;52.528;19.760;2023-04-08T03:23:44;22.32;40.12
67502;SHT30;54349;52.528;19.760;2023-04-08T03:26:13;22.27;40.07
67502;SHT30;54349;52.528;19.760;2023-04-08T03:28:41;22.24;40.12
67502;SHT30;54349;52.528;19.760;2023-04-08T03:31:10;22.24;40.17
67502;SHT30;54349;52.528;19.760;2023-04-08T03:33:40;22.23;40.15
67502;SHT30;54349;52.528;19.760;2023-04-08T03:36:10;22.21;40.12
67502;SHT30;54349;52.528;19.760;2023-04-08T03:38:39;22.20;40.05
67502;SHT30;54349;52.528;19.760;2023-04-08T03:41:08;22.21;39.99
67502;SHT30;54349;52.528;19.760;2023-04-08T03:43:37;22.25;39.71
67502;SHT30;54349;52.528;19.760;2023-04-08T03:46:05;22.38;39.40
67502;SHT30;54349;52.528;19.760;2023-04-08T03:48:33;22.48;39.25
67502;SHT30;54349;52.528;19.760;2023-04-08T03:51:02;22.51;39.12
67502;SHT30;54349;52.528;19.760;2023-04-08T03:53:31;22.55;39.03
67502;SHT30;54349;52.528;19.760;2023-04-08T03:56:00;22.64;38.88
67502;SHT30;54349;52.528;19.760;2023-04-08T03:58:31;22.74;38.68
67502;SHT30;54349;52.528;19.760;2023-04-08T04:01:01;22.83;38.56
67502;SHT30;54349;52.528;19.760;2023-04-08T04:03:29;22.90;38.45
67502;SHT30;54349;52.528;19.760;2023-04-08T04:05:59;22.94;38.30
67502;SHT30;54349;52.528;19.760;2023-04-08T04:08:27;22.96;38.28
67502;SHT30;54349;52.528;19.760;2023-04-08T04:10:57;23.03;38.18
67502;SHT30;54349;52.528;19.760;2023-04-08T04:13:26;23.11;38.05
67502;SHT30;54349;52.528;19.760;2023-04-08T04:15:55;23.19;37.98
67502;SHT30;54349;52.528;19.760;2023-04-08T04:18:25;23.23;37.92
67502;SHT30;54349;52.528;19.760;2023-04-08T04:20:56;23.26;37.85
67502;SHT30;54349;52.528;19.760;2023-04-08T04:23:27;23.28;37.78
67502;SHT30;54349;52.528;19.760;2023-04-08T04:25:56;23.29;37.73
67502;SHT30;54349;52.528;19.760;2023-04-08T04:28:25;23.34;37.72
67502;SHT30;54349;52.528;19.760;2023-04-08T04:30:53;23.39;37.69
67502;SHT30;54349;52.528;19.760;2023-04-08T04:33:24;23.42;37.67
67502;SHT30;54349;52.528;19.760;2023-04-08T04:35:56;23.45;37.64
67502;SHT30;54349;52.528;19.760;2023-04-08T04:38:24;23.45;37.63
67502;SHT30;54349;52.528;19.760;2023-04-08T04:40:54;23.46;37.61
67502;SHT30;54349;52.528;19.760;2023-04-08T04:43:22;23.45;37.59
67502;SHT30;54349;52.528;19.760;2023-04-08T04:45:50;23.47;37.60
67502;SHT30;54349;52.528;19.760;2023-04-08T04:48:19;23.50;37.58
67502;SHT30;54349;52.528;19.760;2023-04-08T04:50:57;23.52;37.58
67502;SHT30;54349;52.528;19.760;2023-04-08T04:53:27;23.54;37.60
67502;SHT30;54349;52.528;19.760;2023-04-08T04:55:59;23.55;37.58
67502;SHT30;54349;52.528;19.760;2023-04-08T04:58:30;23.56;37.53
67502;SHT30;54349;52.528;19.760;2023-04-08T05:01:00;23.55;37.49
67502;SHT30;54349;52.528;19.760;2023-04-08T05:03:30;23.55;37.50
67502;SHT30;54349;52.528;19.760;2023-04-08T05:05:59;23.57;37.51
67502;SHT30;54349;52.528;19.760;2023-04-08T05:08:27;23.59;37.48
67502;SHT30;54349;52.528;19.760;2023-04-08T05:10:56;23.58;37.61
67502;SHT30;54349;52.528;19.760;2023-04-08T05:13:28;23.57;37.76
67502;SHT30;54349;52.528;19.760;2023-04-08T05:16:01;23.56;37.80
67502;SHT30;54349;52.528;19.760;2023-04-08T05:18:30;23.56;37.83
67502;SHT30;54349;52.528;19.760;2023-04-08T05:20:59;23.55;37.94
67502;SHT30;54349;52.528;19.760;2023-04-08T05:23:28;23.54;38.00
67502;SHT30;54349;52.528;19.760;2023-04-08T05:25:57;23.55;38.08
67502;SHT30;54349;52.528;19.760;2023-04-08T05:28:25;23.55;38.15
67502;SHT30;54349;52.528;19.760;2023-04-08T05:30:54;23.55;38.10
67502;SHT30;54349;52.528;19.760;2023-04-08T05:33:22;23.55;38.10
67502;SHT30;54349;52.528;19.760;2023-04-08T05:35:52;23.54;38.03
67502;SHT30;54349;52.528;19.760;2023-04-08T05:38:20;23.54;37.99
67502;SHT30;54349;52.528;19.760;2023-04-08T05:40:49;23.52;38.03
67502;SHT30;54349;52.528;19.760;2023-04-08T05:43:17;23.51;38.06
67502;SHT30;54349;52.528;19.760;2023-04-08T05:45:45;23.51;38.09
67502;SHT30;54349;52.528;19.760;2023-04-08T05:48:14;23.52;38.08
67502;SHT30;54349;52.528;19.760;2023-04-08T05:50:43;23.51;38.07
67502;SHT30;54349;52.528;19.760;2023-04-08T05:53:12;23.51;38.06
67502;SHT30;54349;52.528;19.760;2023-04-08T05:55:41;23.50;38.00
67502;SHT30;54349;52.528;19.760;2023-04-08T05:58:10;23.48;38.01
67502;SHT30;54349;52.528;19.760;2023-04-08T06:00:38;23.46;38.07
67502;SHT30;54349;52.528;19.760;2023-04-08T06:03:07;23.45;38.10
67502;SHT30;54349;52.528;19.760;2023-04-08T06:05:35;23.46;38.12
67502;SHT30;54349;52.528;19.760;2023-04-08T06:08:03;23.46;38.11
67502;SHT30;54349;52.528;19.760;2023-04-08T06:10:32;23.45;38.01
67502;SHT30;54349;52.528;19.760;2023-04-08T06:13:01;23.45;38.03
67502;SHT30;54349;52.528;19.760;2023-04-08T06:15:29;23.44;38.10
67502;SHT30;54349;52.528;19.760;2023-04-08T06:17:58;23.42;38.11
67502;SHT30;54349;52.528;19.760;2023-04-08T06:20:27;23.42;38.16
67502;SHT30;54349;52.528;19.760;2023-04-08T06:22:56;23.42;38.14
67502;SHT30;54349;52.528;19.760;2023-04-08T06:25:24;23.43;38.18
67502;SHT30;54349;52.528;19.760;2023-04-08T06:27:55;23.43;38.14
67502;SHT30;54349;52.528;19.760;2023-04-08T06:30:24;23.41;38.09
67502;SHT30;54349;52.528;19.760;2023-04-08T06:32:52;23.42;38.15
67502;SHT30;54349;52.528;19.760;2023-04-08T06:35:21;23.41;38.18
67502;SHT30;54349;52.528;19.760;2023-04-08T06:37:49;23.41;38.17
67502;SHT30;54349;52.528;19.760;2023-04-08T06:40:17;23.42;38.16
67502;SHT30;54349;52.528;19.760;2023-04-08T06:42:50;23.43;38.14
67502;SHT30;54349;52.528;19.760;2023-04-08T06:45:26;23.42;38.10
67502;SHT30;54349;52.528;19.760;2023-04-08T06:47:55;23.43;38.07
67502;SHT30;54349;52.528;19.760;2023-04-08T06:50:24;23.42;38.04
67502;SHT30;54349;52.528;19.760;2023-04-08T06:52:53;23.43;38.05
67502;SHT30;54349;52.528;19.760;2023-04-08T06:55:23;23.44;38.08
67502;SHT30;54349;52.528;19.760;2023-04-08T06:57:53;23.44;38.01
67502;SHT30;54349;52.528;19.760;2023-04-08T07:00:21;23.46;38.03
67502;SHT30;54349;52.528;19.760;2023-04-08T07:02:50;23.46;38.01
67502;SHT30;54349;52.528;19.760;2023-04-08T07:05:19;23.46;37.95
67502;SHT30;54349;52.528;19.760;2023-04-08T07:07:47;23.46;37.90
67502;SHT30;54349;52.528;19.760;2023-04-08T07:10:18;23.46;37.88
67502;SHT30;54349;52.528;19.760;2023-04-08T07:12:46;23.47;37.89
67502;SHT30;54349;52.528;19.760;2023-04-08T07:15:18;23.48;37.81
67502;SHT30;54349;52.528;19.760;2023-04-08T07:17:50;23.48;37.78
67502;SHT30;54349;52.528;19.760;2023-04-08T07:20:19;23.49;37.79
67502;SHT30;54349;52.528;19.760;2023-04-08T07:22:48;23.50;37.76
67502;SHT30;54349;52.528;19.760;2023-04-08T07:25:19;23.49;37.70
67502;SHT30;54349;52.528;19.760;2023-04-08T07:27:48;23.49;37.67
67502;SHT30;54349;52.528;19.760;2023-04-08T07:30:20;23.49;37.63
67502;SHT30;54349;52.528;19.760;2023-04-08T07:32:49;23.49;37.62
67502;SHT30;54349;52.528;19.760;2023-04-08T07:35:19;23.50;37.64
67502;SHT30;54349;52.528;19.760;2023-04-08T07:37:52;23.51;37.62
67502;SHT30;54349;52.528;19.760;2023-04-08T07:40:20;23.52;37.60
67502;SHT30;54349;52.528;19.760;2023-04-08T07:42:49;23.52;37.54
67502;SHT30;54349;52.528;19.760;2023-04-08T07:45:18;23.52;37.51
67502;SHT30;54349;52.528;19.760;2023-04-08T07:47:51;23.51;37.49
67502;SHT30;54349;52.528;19.760;2023-04-08T07:50:22;23.52;37.45
67502;SHT30;54349;52.528;19.760;2023-04-08T07:52:51;23.54;37.51
67502;SHT30;54349;52.528;19.760;2023-04-08T07:55:24;23.56;37.46
67502;SHT30;54349;52.528;19.760;2023-04-08T07:57:53;23.57;37.42
67502;SHT30;54349;52.528;19.760;2023-04-08T08:00:21;23.58;37.40
67502;SHT30;54349;52.528;19.760;2023-04-08T08:02:49;23.55;37.35
67502;SHT30;54349;52.528;19.760;2023-04-08T08:05:20;23.55;37.32
67502;SHT30;54349;52.528;19.760;2023-04-08T08:07:50;23.56;37.30
67502;SHT30;54349;52.528;19.760;2023-04-08T08:10:18;23.56;37.28
67502;SHT30;54349;52.528;19.760;2023-04-08T08:12:47;23.57;37.25
67502;SHT30;54349;52.528;19.760;2023-04-08T08:15:15;23.57;37.26
67502;SHT30;54349;52.528;19.760;2023-04-08T08:17:44;23.58;37.23
67502;SHT30;54349;52.528;19.760;2023-04-08T08:20:14;23.58;37.22
67502;SHT30;54349;52.528;19.760;2023-04-08T08:22:43;23.58;37.19
67502;SHT30;54349;52.528;19.760;2023-04-08T08:25:24;23.57;37.18
67502;SHT30;54349;52.528;19.760;2023-04-08T08:27:59;23.56;37.22
67502;SHT30;54349;52.528;19.760;2023-04-08T08:30:31;23.57;37.26
67502;SHT30;54349;52.528;19.760;2023-04-08T08:33:02;23.58;37.30
67502;SHT30;54349;52.528;19.760;2023-04-08T08:35:33;23.59;37.29
67502;SHT30;54349;52.528;19.760;2023-04-08T08:38:05;23.59;37.27
67502;SHT30;54349;52.528;19.760;2023-04-08T08:40:34;23.59;37.22
67502;SHT30;54349;52.528;19.760;2023-04-08T08:43:06;23.59;37.22
67502;SHT30;54349;52.528;19.760;2023-04-08T08:45:40;23.58;37.20
67502;SHT30;54349;52.528;19.760;2023-04-08T08:48:09;23.58;37.26
67502;SHT30;54349;52.528;19.760;2023-04-08T08:50:37;23.58;37.29
67502;SHT30;54349;52.528;19.760;2023-04-08T08:53:06;23.60;37.29
67502;SHT30;54349;52.528;19.760;2023-04-08T08:55:34;23.60;37.28
67502;SHT30;54349;52.528;19.760;2023-04-08T08:58:26;23.60;37.27
67502;SHT30;54349;52.528;19.760;2023-04-08T09:01:01;23.59;37.17
67502;SHT30;54349;52.528;19.760;2023-04-08T09:03:33;23.59;37.17
67502;SHT30;54349;52.528;19.760;2023-04-08T09:06:06;23.59;37.20
67502;SHT30;54349;52.528;19.760;2023-04-08T09:08:39;23.59;37.26
67502;SHT30;54349;52.528;19.760;2023-04-08T09:11:16;23.59;37.50
67502;SHT30;54349;52.528;19.760;2023-04-08T09:13:51;23.60;37.78
67502;SHT30;54349;52.528;19.760;2023-04-08T09:16:23;23.60;38.08
67502;SHT30;54349;52.528;19.760;2023-04-08T09:19:06;23.60;38.27
67502;SHT30;54349;52.528;19.760;2023-04-08T09:21:41;23.59;38.31
67502;SHT30;54349;52.528;19.760;2023-04-08T09:24:27;23.59;38.22
67502;SHT30;54349;52.528;19.760;2023-04-08T09:26:57;23.58;38.14
67502;SHT30;54349;52.528;19.760;2023-04-08T09:29:29;23.58;37.96
67502;SHT30;54349;52.528;19.760;2023-04-08T09:32:01;23.58;37.81
67502;SHT30;54349;52.528;19.760;2023-04-08T09:34:30;23.58;37.60
67502;SHT30;54349;52.528;19.760;2023-04-08T09:37:02;23.57;37.42
67502;SHT30;54349;52.528;19.760;2023-04-08T09:39:32;23.57;37.33
67502;SHT30;54349;52.528;19.760;2023-04-08T09:42:01;23.57;37.26
67502;SHT30;54349;52.528;19.760;2023-04-08T09:44:40;23.56;37.26
67502;SHT30;54349;52.528;19.760;2023-04-08T09:47:18;23.58;37.21
67502;SHT30;54349;52.528;19.760;2023-04-08T09:49:57;23.58;37.07
67502;SHT30;54349;52.528;19.760;2023-04-08T09:52:38;23.58;36.93
67502;SHT30;54349;52.528;19.760;2023-04-08T09:55:13;23.58;36.79
67502;SHT30;54349;52.528;19.760;2023-04-08T09:58:10;23.58;36.67
67502;SHT30;54349;52.528;19.760;2023-04-08T10:00:55;23.58;36.63
67502;SHT30;54349;52.528;19.760;2023-04-08T10:03:32;23.59;36.82
67502;SHT30;54349;52.528;19.760;2023-04-08T10:06:11;23.62;37.12
67502;SHT30;54349;52.528;19.760;2023-04-08T10:08:39;23.62;37.41
67502;SHT30;54349;52.528;19.760;2023-04-08T10:11:13;23.64;37.75
67502;SHT30;54349;52.528;19.760;2023-04-08T10:13:43;23.65;38.00
67502;SHT30;54349;52.528;19.760;2023-04-08T10:18:49;23.68;38.47
67502;SHT30;54349;52.528;19.760;2023-04-08T10:21:38;23.69;38.69
67502;SHT30;54349;52.528;19.760;2023-04-08T10:24:14;23.71;38.84
67502;SHT30;54349;52.528;19.760;2023-04-08T10:26:52;23.72;39.02
67502;SHT30;54349;52.528;19.760;2023-04-08T10:32:01;23.75;39.32
67502;SHT30;54349;52.528;19.760;2023-04-08T10:34:30;23.75;39.42
67502;SHT30;54349;52.528;19.760;2023-04-08T10:36:58;23.76;39.50
67502;SHT30;54349;52.528;19.760;2023-04-08T10:39:29;23.78;39.57
67502;SHT30;54349;52.528;19.760;2023-04-08T10:42:00;23.77;39.69
67502;SHT30;54349;52.528;19.760;2023-04-08T10:44:29;23.78;39.80
67502;SHT30;54349;52.528;19.760;2023-04-08T10:46:58;23.79;39.89
67502;SHT30;54349;52.528;19.760;2023-04-08T10:49:34;23.78;39.88
67502;SHT30;54349;52.528;19.760;2023-04-08T10:52:07;23.80;39.96
67502;SHT30;54349;52.528;19.760;2023-04-08T10:54:39;23.80;40.04
67502;SHT30;54349;52.528;19.760;2023-04-08T10:57:22;23.80;40.05
67502;SHT30;54349;52.528;19.760;2023-04-08T10:59:52;23.79;39.91
67502;SHT30;54349;52.528;19.760;2023-04-08T11:02:21;23.79;39.78
67502;SHT30;54349;52.528;19.760;2023-04-08T11:04:52;23.79;39.77
67502;SHT30;54349;52.528;19.760;2023-04-08T11:07:24;23.79;39.71
67502;SHT30;54349;52.528;19.760;2023-04-08T11:09:54;23.78;39.60
67502;SHT30;54349;52.528;19.760;2023-04-08T11:12:25;23.79;39.54
67502;SHT30;54349;52.528;19.760;2023-04-08T11:14:57;23.78;39.44
67502;SHT30;54349;52.528;19.760;2023-04-08T11:17:25;23.78;39.40
67502;SHT30;54349;52.528;19.760;2023-04-08T11:19:56;23.77;39.37
67502;SHT30;54349;52.528;19.760;2023-04-08T11:22:35;23.78;39.36
67502;SHT30;54349;52.528;19.760;2023-04-08T11:25:04;23.78;39.38
67502;SHT30;54349;52.528;19.760;2023-04-08T11:27:37;23.79;39.37
67502;SHT30;54349;52.528;19.760;2023-04-08T11:30:10;23.80;39.50
67502;SHT30;54349;52.528;19.760;2023-04-08T11:32:40;23.82;39.55
67502;SHT30;54349;52.528;19.760;2023-04-08T11:35:09;23.83;39.60
67502;SHT30;54349;52.528;19.760;2023-04-08T11:37:39;23.85;39.53
67502;SHT30;54349;52.528;19.760;2023-04-08T11:40:18;23.87;39.44
67502;SHT30;54349;52.528;19.760;2023-04-08T11:42:51;23.87;39.37
67502;SHT30;54349;52.528;19.760;2023-04-08T11:45:21;23.88;39.28
67502;SHT30;54349;52.528;19.760;2023-04-08T11:47:52;23.91;39.15
67502;SHT30;54349;52.528;19.760;2023-04-08T11:50:24;23.93;39.05
67502;SHT30;54349;52.528;19.760;2023-04-08T11:52:57;23.94;38.95
67502;SHT30;54349;52.528;19.760;2023-04-08T11:55:27;23.97;38.83
67502;SHT30;54349;52.528;19.760;2023-04-08T11:58:03;23.98;38.73
67502;SHT30;54349;52.528;19.760;2023-04-08T12:00:32;23.99;38.71
67502;SHT30;54349;52.528;19.760;2023-04-08T12:03:01;24.01;38.63
67502;SHT30;54349;52.528;19.760;2023-04-08T12:05:29;24.03;38.57
67502;SHT30;54349;52.528;19.760;2023-04-08T12:07:58;24.06;38.51
67502;SHT30;54349;52.528;19.760;2023-04-08T12:10:26;24.09;38.41
67502;SHT30;54349;52.528;19.760;2023-04-08T12:12:55;24.10;38.36
67502;SHT30;54349;52.528;19.760;2023-04-08T12:15:23;24.13;38.30
67502;SHT30;54349;52.528;19.760;2023-04-08T12:17:54;24.14;38.20
67502;SHT30;54349;52.528;19.760;2023-04-08T12:20:26;24.17;38.18
67502;SHT30;54349;52.528;19.760;2023-04-08T12:22:55;24.18;38.21
67502;SHT30;54349;52.528;19.760;2023-04-08T12:25:23;24.21;38.14
67502;SHT30;54349;52.528;19.760;2023-04-08T12:27:51;24.22;38.07
67502;SHT30;54349;52.528;19.760;2023-04-08T12:30:20;24.24;38.01
67502;SHT30;54349;52.528;19.760;2023-04-08T12:32:48;24.25;37.93
67502;SHT30;54349;52.528;19.760;2023-04-08T12:35:17;24.28;37.85
67502;SHT30;54349;52.528;19.760;2023-04-08T12:37:45;24.29;37.82
67502;SHT30;54349;52.528;19.760;2023-04-08T12:40:13;24.30;37.79
67502;SHT30;54349;52.528;19.760;2023-04-08T12:42:42;24.31;37.74
67502;SHT30;54349;52.528;19.760;2023-04-08T12:45:10;24.33;37.64
67502;SHT30;54349;52.528;19.760;2023-04-08T12:47:39;24.35;37.62
67502;SHT30;54349;52.528;19.760;2023-04-08T12:50:08;24.35;37.54
67502;SHT30;54349;52.528;19.760;2023-04-08T12:52:37;24.37;37.56
67502;SHT30;54349;52.528;19.760;2023-04-08T12:55:06;24.39;37.50
67502;SHT30;54349;52.528;19.760;2023-04-08T12:57:35;24.40;37.47
67502;SHT30;54349;52.528;19.760;2023-04-08T13:00:04;24.41;37.44
67502;SHT30;54349;52.528;19.760;2023-04-08T13:02:33;24.41;37.34
67502;SHT30;54349;52.528;19.760;2023-04-08T13:05:03;24.43;37.29
67502;SHT30;54349;52.528;19.760;2023-04-08T13:07:32;24.42;37.26
67502;SHT30;54349;52.528;19.760;2023-04-08T13:10:01;24.44;37.24
67502;SHT30;54349;52.528;19.760;2023-04-08T13:12:30;24.45;37.25
67502;SHT30;54349;52.528;19.760;2023-04-08T13:15:00;24.44;37.21
67502;SHT30;54349;52.528;19.760;2023-04-08T13:17:29;24.47;37.17
67502;SHT30;54349;52.528;19.760;2023-04-08T13:19:57;24.47;37.15
67502;SHT30;54349;52.528;19.760;2023-04-08T13:22:25;24.48;37.13
67502;SHT30;54349;52.528;19.760;2023-04-08T13:24:54;24.46;37.17
67502;SHT30;54349;52.528;19.760;2023-04-08T13:27:22;24.47;37.16
67502;SHT30;54349;52.528;19.760;2023-04-08T13:29:54;24.47;37.11
67502;SHT30;54349;52.528;19.760;2023-04-08T13:32:22;24.48;37.12
67502;SHT30;54349;52.528;19.760;2023-04-08T13:34:51;24.48;37.08
67502;SHT30;54349;52.528;19.760;2023-04-08T13:37:23;24.48;37.03
67502;SHT30;54349;52.528;19.760;2023-04-08T13:39:51;24.49;37.00
67502;SHT30;54349;52.528;19.760;2023-04-08T13:42:20;24.49;36.95
67502;SHT30;54349;52.528;19.760;2023-04-08T13:44:52;24.50;36.96
67502;SHT30;54349;52.528;19.760;2023-04-08T13:47:20;24.48;37.01
67502;SHT30;54349;52.528;19.760;2023-04-08T13:49:51;24.46;37.04
67502;SHT30;54349;52.528;19.760;2023-04-08T13:52:20;24.44;37.03
67502;SHT30;54349;52.528;19.760;2023-04-08T13:54:49;24.42;37.02
67502;SHT30;54349;52.528;19.760;2023-04-08T13:57:17;24.41;37.23
67502;SHT30;54349;52.528;19.760;2023-04-08T13:59:46;24.40;37.52
67502;SHT30;54349;52.528;19.760;2023-04-08T14:02:15;24.39;37.69
67502;SHT30;54349;52.528;19.760;2023-04-08T14:04:45;24.37;37.65
67502;SHT30;54349;52.528;19.760;2023-04-08T14:07:18;24.37;37.58
67502;SHT30;54349;52.528;19.760;2023-04-08T14:09:48;24.38;37.50
67502;SHT30;54349;52.528;19.760;2023-04-08T14:12:21;24.39;37.40
67502;SHT30;54349;52.528;19.760;2023-04-08T14:14:51;24.40;37.34
67502;SHT30;54349;52.528;19.760;2023-04-08T14:17:20;24.42;37.29
67502;SHT30;54349;52.528;19.760;2023-04-08T14:19:50;24.41;37.38
67502;SHT30;54349;52.528;19.760;2023-04-08T14:22:18;24.42;37.48
67502;SHT30;54349;52.528;19.760;2023-04-08T14:24:48;24.41;37.59
67502;SHT30;54349;52.528;19.760;2023-04-08T14:27:17;24.42;37.66
67502;SHT30;54349;52.528;19.760;2023-04-08T14:29:49;24.42;37.73
67502;SHT30;54349;52.528;19.760;2023-04-08T14:32:17;24.42;37.80
67502;SHT30;54349;52.528;19.760;2023-04-08T14:34:46;24.42;37.80
67502;SHT30;54349;52.528;19.760;2023-04-08T14:37:17;24.41;37.83
67502;SHT30;54349;52.528;19.760;2023-04-08T14:39:45;24.41;37.92
67502;SHT30;54349;52.528;19.760;2023-04-08T14:42:14;24.40;38.06
67502;SHT30;54349;52.528;19.760;2023-04-08T14:44:45;24.40;38.18
67502;SHT30;54349;52.528;19.760;2023-04-08T14:47:14;24.40;38.27
67502;SHT30;54349;52.528;19.760;2023-04-08T14:49:46;24.40;38.36
67502;SHT30;54349;52.528;19.760;2023-04-08T14:52:23;24.41;38.35
67502;SHT30;54349;52.528;19.760;2023-04-08T14:54:56;24.43;38.39
67502;SHT30;54349;52.528;19.760;2023-04-08T14:57:29;24.43;38.34
67502;SHT30;54349;52.528;19.760;2023-04-08T15:00:00;24.43;38.30
67502;SHT30;54349;52.528;19.760;2023-04-08T15:02:33;24.44;38.23
67502;SHT30;54349;52.528;19.760;2023-04-08T15:05:04;24.44;38.14
67502;SHT30;54349;52.528;19.760;2023-04-08T15:07:39;24.44;37.97
67502;SHT30;54349;52.528;19.760;2023-04-08T15:10:10;24.44;37.82
67502;SHT30;54349;52.528;19.760;2023-04-08T15:12:43;24.44;37.70
67502;SHT30;54349;52.528;19.760;2023-04-08T15:15:16;24.42;37.52
67502;SHT30;54349;52.528;19.760;2023-04-08T15:17:47;24.43;37.45
67502;SHT30;54349;52.528;19.760;2023-04-08T15:20:20;24.44;37.36
67502;SHT30;54349;52.528;19.760;2023-04-08T15:22:51;24.43;37.28
67502;SHT30;54349;52.528;19.760;2023-04-08T15:25:24;24.43;37.22
67502;SHT30;54349;52.528;19.760;2023-04-08T15:27:57;24.44;37.17
67502;SHT30;54349;52.528;19.760;2023-04-08T15:30:36;24.43;37.12
67502;SHT30;54349;52.528;19.760;2023-04-08T15:33:08;24.43;37.10
67502;SHT30;54349;52.528;19.760;2023-04-08T15:35:39;24.41;37.12
67502;SHT30;54349;52.528;19.760;2023-04-08T15:38:13;24.42;37.09
67502;SHT30;54349;52.528;19.760;2023-04-08T15:40:43;24.42;37.09
67502;SHT30;54349;52.528;19.760;2023-04-08T15:43:16;24.41;37.07
67502;SHT30;54349;52.528;19.760;2023-04-08T15:45:50;24.41;37.03
67502;SHT30;54349;52.528;19.760;2023-04-08T15:48:22;24.41;37.01
67502;SHT30;54349;52.528;19.760;2023-04-08T15:50:53;24.39;37.00
67502;SHT30;54349;52.528;19.760;2023-04-08T15:53:27;24.39;36.98